KFEW/FEW METAR and TAF weather

Enter ICAO airport designator
Station Type Date Time Source
KFEW METAR 2018/12/13 07:58 UTC NOAA

KFEW 130758Z AUTO 32014KT 10SM CLR M05/M11 A3010 RMK AO2 SLP216 T10501108 $


Station Type Date Time Source
KFEW Decoded METAR 2018/12/13 07:58 UTC NOAA

Station name not available
Dec 13, 2018 - 02:58 AM EST / 2018.12.13 0758 UTC
Wind: from the NW (320 degrees) at 16 MPH (14 KT):0
Visibility: 10 mile(s):0
Sky conditions: clear
Temperature: 23.0 F (-5.0 C)
Windchill: 10 F (-12 C):1
Dew Point: 12.6 F (-10.8 C)
Relative Humidity: 63%
Pressure (altimeter): 30.1 in. Hg (1019 hPa)
ob: KFEW 130758Z AUTO 32014KT 10SM CLR M05/M11 A3010 RMK AO2 SLP216 T10501108
cycle: 8

Station Type Date Time Source
KFEW TAF UTC NOAA

Error!


Example: see airport list